Terminal Aerodrome Forecast
Issued by NWS

Home | Current Version | Previous Version | Text Only | Print | Product List | Glossary On
Versions: 1 2 3 4 5 6 7 8 9 10 11 12 13 14 15 16 17 18
000
FTUS43 KAPX 211351 AAA
TAFMBL
TAF AMD
KMBL 211351Z 2114/2212 24012G18KT P6SM VCSH SCT013 BKN019 BKN025
     FM220100 26007KT P6SM OVC050
     FM220400 30007KT P6SM -RASN OVC025
      AMD LTD TO CLD VIS AND WIND=

USA.gov is the U.S. government's official web portal to all federal, state and local government web resources and services.